White Mountain Airport

About
Name: White Mountain Airport
Identifier:  WMO/PAWM
Serves:  White Mountain, Alaska
Owner:  State of Alaska DOT&PF - Northern Region
Public/Private:  Public
Local Time:  22. Aug 21:31 AKDT
Description: White Mountain Airport is a state-owned public-use airport located one nautical mile north of the central business district of White Mountain, a city in the Nome Census Area of the U.S. state of Alaska.[1]
Source: Wikipedia
Location
White Mountain
  United States

Runways
Identifier Length (m/ft) Surface
15/33 3,000/3,000 Gravel
Flights per Day
0 flights
Distance: 99km (61mi)
Punctuality
0% (0 flights per day delayed)
Delay Average: 539 minutes
Current Weather
 13 C (Humidity: 54%)
  10kt (18km/h / 11mph) from 10°
17 knots Gusts

  16km (10 mi.)
 
 METAR PAWM 230456Z AUTO 01010G17KT 10SM CLR 13/04 A2973 RMK AO2 SLP072 T01330039 PNO $

Current Flights

Departures
Number Departure To Airline
Arrivals
Number Arrival From Airline

Current Delays

Departures
N/A
Arrivals
N/A

Destinations

Top Destinations
Airport Flights
per week
Seats
per week
  Nome (OME) 0 - 0 0

Airlines & Planes

Top Airlines
Airline Flights
per Day
Seats
per Day
Bering Air 0 -
Top Plane Types
Model Flights Seats
Piper PA-31-350 0.1/day - 0
Cessna C208 0.0/day - 0
Beech B200 Super King Air 0.0/day - 0